createdAt,value
2023-04-15T00:00:01.350Z,94750.6172
2023-04-15T00:01:03.039Z,94750.3828
2023-04-15T00:02:04.708Z,94750.3047
2023-04-15T00:03:06.476Z,94748.2344
2023-04-15T00:04:08.056Z,94748.3828
2023-04-15T00:05:09.624Z,94748.2344
2023-04-15T00:06:11.324Z,94748.3828
2023-04-15T00:07:12.966Z,94748.3047
2023-04-15T00:08:14.572Z,94749.1562
2023-04-15T00:09:16.254Z,94749.4609
2023-04-15T00:10:17.894Z,94750.1562
2023-04-15T00:11:19.585Z,94750.3828
2023-04-15T00:12:21.189Z,94750.0781
2023-04-15T00:13:22.825Z,94748.6172
2023-04-15T00:14:24.526Z,94747.4609
2023-04-15T00:15:26.099Z,94746.6953
2023-04-15T00:16:27.840Z,94745.0781
2023-04-15T00:17:29.503Z,94745.3047
2023-04-15T00:18:31.083Z,94744.4609
2023-04-15T00:19:32.809Z,94744.1562
2023-04-15T00:20:34.402Z,94744.4609
2023-04-15T00:21:36.083Z,94744.4609
2023-04-15T00:22:37.746Z,94743.6953
2023-04-15T00:23:39.387Z,94744.0781
2023-04-15T00:24:41.004Z,94744.1562
2023-04-15T00:25:42.662Z,94744.0000
2023-04-15T00:26:44.401Z,94743.6172
2023-04-15T00:27:45.962Z,94743.0781
2023-04-15T00:28:47.651Z,94742.0781
2023-04-15T00:29:49.363Z,94741.0000
2023-04-15T00:30:51.058Z,94739.6953
2023-04-15T00:31:52.704Z,94737.6172
2023-04-15T00:32:54.391Z,94736.4609
2023-04-15T00:33:55.965Z,94735.7656
2023-04-15T00:34:57.712Z,94735.0781
2023-04-15T00:35:59.329Z,94734.6953
2023-04-15T00:37:00.980Z,94733.4609
2023-04-15T00:38:02.663Z,94733.0000
2023-04-15T00:39:04.240Z,94732.5391
2023-04-15T00:40:05.969Z,94732.3047
2023-04-15T00:41:07.590Z,94731.3047
2023-04-15T00:42:09.288Z,94731.3047
2023-04-15T00:43:10.907Z,94730.0000
2023-04-15T00:44:12.553Z,94729.2344
2023-04-15T00:45:14.220Z,94728.6172
2023-04-15T00:46:15.907Z,94727.6172
2023-04-15T00:47:17.565Z,94726.7656
2023-04-15T00:48:19.153Z,94726.3828
2023-04-15T00:49:20.794Z,94725.1562
2023-04-15T00:50:22.417Z,94724.6953
2023-04-15T00:51:24.109Z,94724.6953
2023-04-15T00:52:25.778Z,94725.6172
2023-04-15T00:53:27.449Z,94727.5391
2023-04-15T00:54:29.081Z,94728.6172
2023-04-15T00:55:30.688Z,94730.4609
2023-04-15T00:56:32.350Z,94730.7656
2023-04-15T00:57:34.080Z,94731.9219
2023-04-15T00:58:35.591Z,94730.7656
2023-04-15T00:59:37.213Z,94730.8438
2023-04-15T01:00:38.877Z,94731.0000
2023-04-15T01:01:40.571Z,94730.0781
2023-04-15T01:02:42.322Z,94729.9219
2023-04-15T01:03:44.027Z,94729.0000
2023-04-15T01:04:45.471Z,94729.0000
2023-04-15T01:05:47.132Z,94729.1562
2023-04-15T01:06:48.831Z,94729.6953
2023-04-15T01:07:50.488Z,94729.3047
2023-04-15T01:08:52.108Z,94729.6172
2023-04-15T01:09:53.778Z,94728.9219
2023-04-15T01:10:55.426Z,94728.6172
2023-04-15T01:11:57.088Z,94727.7656
2023-04-15T01:12:58.780Z,94727.8438
2023-04-15T01:14:00.427Z,94729.2344
2023-04-15T01:15:02.048Z,94731.2344
2023-04-15T01:16:03.772Z,94734.0000
2023-04-15T01:17:05.389Z,94735.6953
2023-04-15T01:18:07.059Z,94738.6172
2023-04-15T01:19:08.662Z,94739.8438
2023-04-15T01:20:10.330Z,94740.5391
2023-04-15T01:21:12.030Z,94741.7656
2023-04-15T01:22:13.626Z,94743.0781
2023-04-15T01:23:15.291Z,94743.0781
2023-04-15T01:24:16.969Z,94743.3047
2023-04-15T01:25:18.669Z,94743.7656
2023-04-15T01:26:20.273Z,94743.6172
2023-04-15T01:27:21.926Z,94744.0781
2023-04-15T01:28:23.593Z,94744.8438
2023-04-15T01:29:25.228Z,94744.4609
2023-04-15T01:30:26.870Z,94744.4609
2023-04-15T01:31:28.602Z,94743.9219
2023-04-15T01:32:30.206Z,94744.6172
2023-04-15T01:33:31.985Z,94744.5391
2023-04-15T01:34:35.632Z,94745.0781
2023-04-15T01:35:35.262Z,94745.7656
2023-04-15T01:36:36.888Z,94746.9219
2023-04-15T01:37:38.470Z,94747.8438
2023-04-15T01:38:40.129Z,94748.0781
2023-04-15T01:39:41.744Z,94748.9219
2023-04-15T01:40:43.421Z,94749.1562
2023-04-15T01:41:45.063Z,94750.2344
2023-04-15T01:42:46.715Z,94751.6953
2023-04-15T01:43:48.406Z,94752.1562
2023-04-15T01:44:50.027Z,94752.3047
2023-04-15T01:45:51.710Z,94751.7656
2023-04-15T01:46:53.423Z,94751.3828
2023-04-15T01:47:55.014Z,94750.6953
2023-04-15T01:48:56.733Z,94750.5391
2023-04-15T01:49:58.311Z,94749.9219
2023-04-15T01:50:59.928Z,94749.3828
2023-04-15T01:52:01.695Z,94748.9219
2023-04-15T01:53:03.236Z,94748.5391
2023-04-15T01:54:04.985Z,94749.6172
2023-04-15T01:55:06.590Z,94748.8438
2023-04-15T01:56:08.190Z,94749.7656
2023-04-15T01:57:09.883Z,94750.3047
2023-04-15T01:58:11.491Z,94750.0781
2023-04-15T01:59:13.198Z,94751.0000
2023-04-15T02:00:14.810Z,94751.9219
2023-04-15T02:01:16.499Z,94751.3828
2023-04-15T02:02:18.136Z,94751.6172
2023-04-15T02:03:19.904Z,94751.0781
2023-04-15T02:04:21.453Z,94750.8438
2023-04-15T02:05:23.061Z,94750.0000
2023-04-15T02:06:24.712Z,94749.0781
2023-04-15T02:07:26.371Z,94748.0781
2023-04-15T02:08:28.032Z,94747.5391
2023-04-15T02:09:29.695Z,94747.0781
2023-04-15T02:10:31.298Z,94747.5391
2023-04-15T02:11:32.976Z,94747.6172
2023-04-15T02:12:34.616Z,94748.2344
2023-04-15T02:13:36.320Z,94747.8438
2023-04-15T02:14:37.982Z,94748.3047
2023-04-15T02:15:39.581Z,94747.9219
2023-04-15T02:16:41.321Z,94748.3828
2023-04-15T02:17:42.946Z,94749.2344
2023-04-15T02:18:44.581Z,94749.8438
2023-04-15T02:19:46.221Z,94751.1562
2023-04-15T02:20:47.847Z,94751.0000
2023-04-15T02:21:49.504Z,94751.0781
2023-04-15T02:22:51.156Z,94751.2344
2023-04-15T02:23:54.011Z,94752.3047
2023-04-15T02:24:54.530Z,94752.6172
2023-04-15T02:25:56.120Z,94752.9219
2023-04-15T02:26:57.774Z,94752.2344
2023-04-15T02:28:00.400Z,94751.6953
2023-04-15T02:29:01.274Z,94752.1562
2023-04-15T02:30:02.859Z,94752.9219
2023-04-15T02:31:04.469Z,94752.8438
2023-04-15T02:32:06.275Z,94752.8438
2023-04-15T02:33:07.782Z,94753.9219
2023-04-15T02:34:09.477Z,94753.1562
2023-04-15T02:35:11.139Z,94752.3047
2023-04-15T02:36:12.780Z,94752.3047
2023-04-15T02:37:14.429Z,94752.6172
2023-04-15T02:38:16.083Z,94752.7656
2023-04-15T02:39:17.717Z,94752.6172
2023-04-15T02:40:19.297Z,94752.8438
2023-04-15T02:41:20.934Z,94753.3828
2023-04-15T02:42:22.621Z,94753.0781
2023-04-15T02:43:24.261Z,94754.0781
2023-04-15T02:44:25.935Z,94753.9219
2023-04-15T02:45:27.628Z,94755.5391
2023-04-15T02:46:29.337Z,94755.7656
2023-04-15T02:47:30.943Z,94754.4609
2023-04-15T02:48:32.557Z,94754.0781
2023-04-15T02:49:34.180Z,94752.6172
2023-04-15T02:50:35.878Z,94752.0781
2023-04-15T02:51:37.454Z,94751.5391
2023-04-15T02:52:39.116Z,94751.5391
2023-04-15T02:53:40.790Z,94751.5391
2023-04-15T02:54:42.426Z,94750.6172
2023-04-15T02:55:44.133Z,94750.2344
2023-04-15T02:56:45.715Z,94750.3828
2023-04-15T02:57:47.378Z,94750.3828
2023-04-15T02:58:49.076Z,94751.2344
2023-04-15T02:59:50.688Z,94751.8438
2023-04-15T03:00:52.389Z,94753.1562
2023-04-15T03:01:54.156Z,94755.0000
2023-04-15T03:02:55.769Z,94755.6953
2023-04-15T03:03:57.443Z,94757.0000
2023-04-15T03:04:58.935Z,94758.0000
2023-04-15T03:06:00.631Z,94758.2344
2023-04-15T03:07:02.246Z,94757.3047
2023-04-15T03:08:03.924Z,94756.3047
2023-04-15T03:09:05.548Z,94755.3828
2023-04-15T03:10:07.208Z,94753.9219
2023-04-15T03:11:08.891Z,94752.8438
2023-04-15T03:12:10.493Z,94750.9219
2023-04-15T03:13:12.098Z,94750.3828
2023-04-15T03:14:13.763Z,94749.6172
2023-04-15T03:15:15.537Z,94750.6953
2023-04-15T03:16:17.263Z,94750.4609
2023-04-15T03:17:18.792Z,94749.6172
2023-04-15T03:18:20.589Z,94748.4609
2023-04-15T03:19:22.073Z,94747.8438
2023-04-15T03:20:23.808Z,94746.6953
2023-04-15T03:21:25.483Z,94746.0781
2023-04-15T03:22:27.052Z,94746.2344
2023-04-15T03:23:28.737Z,94747.6172
2023-04-15T03:24:30.369Z,94750.3828
2023-04-15T03:25:32.111Z,94751.6953
2023-04-15T03:26:33.739Z,94752.2344
2023-04-15T03:27:35.372Z,94753.0781
2023-04-15T03:28:36.971Z,94752.8438
2023-04-15T03:29:38.622Z,94751.0000
2023-04-15T03:30:40.353Z,94748.9219
2023-04-15T03:31:42.032Z,94747.5391
2023-04-15T03:32:43.563Z,94746.4609
2023-04-15T03:33:45.215Z,94746.5391
2023-04-15T03:34:46.891Z,94744.9219
2023-04-15T03:35:48.491Z,94743.6172
2023-04-15T03:36:50.234Z,94743.3828
2023-04-15T03:37:51.771Z,94742.3828
2023-04-15T03:38:53.414Z,94742.0000
2023-04-15T03:39:55.107Z,94741.4609
2023-04-15T03:40:56.711Z,94740.6953
2023-04-15T03:41:58.428Z,94739.6953
2023-04-15T03:43:00.130Z,94738.4609
2023-04-15T03:44:01.574Z,94736.2344
2023-04-15T03:45:03.275Z,94734.8438
2023-04-15T03:46:04.951Z,94733.5391
2023-04-15T03:47:06.633Z,94733.1562
2023-04-15T03:48:17.060Z,94732.4609
2023-04-15T03:49:09.862Z,94733.2344
2023-04-15T03:50:11.494Z,94732.6172
2023-04-15T03:51:13.114Z,94733.3047
2023-04-15T03:52:14.764Z,94733.4609
2023-04-15T03:53:16.412Z,94733.8438
2023-04-15T03:54:18.078Z,94734.5391
2023-04-15T03:55:19.720Z,94735.0000
2023-04-15T03:56:21.344Z,94735.6172
2023-04-15T03:57:23.007Z,94735.6172
2023-04-15T03:58:24.648Z,94735.8438
2023-04-15T03:59:26.271Z,94736.5391
2023-04-15T04:00:27.955Z,94736.9219
2023-04-15T04:01:29.570Z,94737.6953
2023-04-15T04:02:31.335Z,94738.2344
2023-04-15T04:03:32.951Z,94739.0000
2023-04-15T04:04:34.558Z,94739.6953
2023-04-15T04:05:36.152Z,94740.3828
2023-04-15T04:06:37.803Z,94740.6172
2023-04-15T04:07:39.473Z,94741.3828
2023-04-15T04:08:41.111Z,94741.0781
2023-04-15T04:09:42.734Z,94741.6172
2023-04-15T04:10:44.394Z,94742.3828
2023-04-15T04:11:46.031Z,94742.5391
2023-04-15T04:12:47.782Z,94742.7656
2023-04-15T04:13:49.347Z,94743.2344
2023-04-15T04:14:50.947Z,94742.8438
2023-04-15T04:15:52.657Z,94742.6172
2023-04-15T04:16:54.319Z,94741.5391
2023-04-15T04:17:55.993Z,94740.6953
2023-04-15T04:18:57.583Z,94741.6172
2023-04-15T04:19:59.324Z,94742.2344
2023-04-15T04:21:00.947Z,94742.7656
2023-04-15T04:22:02.705Z,94743.9219
2023-04-15T04:23:04.313Z,94744.8438
2023-04-15T04:24:05.830Z,94744.5391
2023-04-15T04:25:07.440Z,94745.0781
2023-04-15T04:26:09.142Z,94745.2344
2023-04-15T04:27:10.797Z,94746.1562
2023-04-15T04:28:12.416Z,94746.7656
2023-04-15T04:29:14.051Z,94747.4609
2023-04-15T04:30:15.715Z,94747.8438
2023-04-15T04:31:17.420Z,94747.7656
2023-04-15T04:32:19.069Z,94748.5391
2023-04-15T04:33:20.656Z,94747.8438
2023-04-15T04:34:22.312Z,94747.9219
2023-04-15T04:35:23.956Z,94748.7656
2023-04-15T04:36:25.579Z,94748.9219
2023-04-15T04:37:27.313Z,94749.6953
2023-04-15T04:38:28.880Z,94749.6172
2023-04-15T04:39:30.570Z,94749.9219
2023-04-15T04:40:32.166Z,94750.3047
2023-04-15T04:41:33.838Z,94750.6172
2023-04-15T04:42:36.803Z,94751.4609
2023-04-15T04:43:37.128Z,94750.9219
2023-04-15T04:44:38.779Z,94750.3047
2023-04-15T04:45:40.464Z,94749.7656
2023-04-15T04:46:42.085Z,94750.0781
2023-04-15T04:47:43.836Z,94751.0000
2023-04-15T04:49:00.000Z,94751.1562
2023-04-15T04:49:47.062Z,94750.9219
2023-04-15T04:50:48.665Z,94750.7656
2023-04-15T04:51:50.368Z,94751.4609
2023-04-15T04:52:52.024Z,94752.6953
2023-04-15T04:53:53.655Z,94752.8438
2023-04-15T04:54:55.278Z,94752.6172
2023-04-15T04:55:56.928Z,94751.0000
2023-04-15T04:56:58.588Z,94751.3047
2023-04-15T04:58:00.268Z,94751.0000
2023-04-15T04:59:02.130Z,94751.6172
2023-04-15T05:00:03.608Z,94752.2344
2023-04-15T05:01:05.316Z,94752.9219
2023-04-15T05:02:06.930Z,94753.3828
2023-04-15T05:03:08.763Z,94753.6172
2023-04-15T05:04:10.396Z,94755.1562
2023-04-15T05:05:11.882Z,94755.8438
2023-04-15T05:06:13.525Z,94756.4609
2023-04-15T05:07:15.160Z,94756.0000
2023-04-15T05:08:16.856Z,94756.9219
2023-04-15T05:09:18.548Z,94757.1562
2023-04-15T05:10:20.145Z,94758.4609
2023-04-15T05:11:21.874Z,94758.9219
2023-04-15T05:12:23.435Z,94759.7656
2023-04-15T05:13:25.145Z,94761.7656
2023-04-15T05:14:26.752Z,94762.8438
2023-04-15T05:15:28.539Z,94764.3828
2023-04-15T05:16:29.912Z,94765.7656
2023-04-15T05:17:31.779Z,94766.6172
2023-04-15T05:18:33.419Z,94767.7656
2023-04-15T05:19:35.003Z,94769.6953
2023-04-15T05:20:36.623Z,94770.8438
2023-04-15T05:21:39.512Z,94772.2344
2023-04-15T05:22:39.954Z,94773.1562
2023-04-15T05:23:41.624Z,94774.0000
2023-04-15T05:24:43.294Z,94774.9219
2023-04-15T05:25:44.907Z,94775.1562
2023-04-15T05:26:46.589Z,94775.3047
2023-04-15T05:27:48.132Z,94776.6172
2023-04-15T05:28:49.729Z,94776.3828
2023-04-15T05:29:51.407Z,94776.2344
2023-04-15T05:30:53.069Z,94776.7656
2023-04-15T05:31:54.660Z,94777.4609
2023-04-15T05:32:56.329Z,94777.0000
2023-04-15T05:33:58.003Z,94777.0781
2023-04-15T05:34:59.628Z,94776.8438
2023-04-15T05:36:01.219Z,94777.0000
2023-04-15T05:37:02.918Z,94777.1562
2023-04-15T05:38:04.564Z,94778.0000
2023-04-15T05:39:06.332Z,94777.0781
2023-04-15T05:40:07.953Z,94777.3047
2023-04-15T05:41:09.638Z,94776.2344
2023-04-15T05:42:11.249Z,94776.4609
2023-04-15T05:43:12.864Z,94776.1562
2023-04-15T05:44:14.605Z,94775.9219
2023-04-15T05:45:16.192Z,94775.8438
2023-04-15T05:46:18.002Z,94775.6172
2023-04-15T05:47:19.576Z,94775.4609
2023-04-15T05:48:21.167Z,94776.9219
2023-04-15T05:49:22.840Z,94777.8438
2023-04-15T05:50:24.431Z,94778.1562
2023-04-15T05:51:26.085Z,94779.0000
2023-04-15T05:52:27.704Z,94779.6953
2023-04-15T05:53:29.358Z,94780.4609
2023-04-15T05:54:31.056Z,94780.8438
2023-04-15T05:55:32.673Z,94779.8438
2023-04-15T05:56:34.311Z,94779.5391
2023-04-15T05:57:36.029Z,94779.9219
2023-04-15T05:58:37.712Z,94780.6953
2023-04-15T05:59:39.352Z,94781.0000
2023-04-15T06:00:41.009Z,94782.2344
2023-04-15T06:01:42.590Z,94783.0781
2023-04-15T06:02:44.420Z,94785.3047
2023-04-15T06:03:46.110Z,94785.5391
2023-04-15T06:04:47.643Z,94785.3047
2023-04-15T06:05:49.212Z,94785.9219
2023-04-15T06:06:50.868Z,94786.1562
2023-04-15T06:07:52.443Z,94786.7656
2023-04-15T06:08:54.116Z,94786.7656
2023-04-15T06:09:55.801Z,94786.6172
2023-04-15T06:10:57.402Z,94788.0781
2023-04-15T06:11:59.060Z,94789.1562
2023-04-15T06:13:00.700Z,94790.6172
2023-04-15T06:14:02.387Z,94791.0781
2023-04-15T06:15:04.034Z,94791.0781
2023-04-15T06:16:05.701Z,94791.3828
2023-04-15T06:17:07.315Z,94791.9219
2023-04-15T06:18:08.936Z,94790.9219
2023-04-15T06:19:10.642Z,94791.1562
2023-04-15T06:20:12.273Z,94791.6172
2023-04-15T06:21:13.914Z,94791.7656
2023-04-15T06:22:15.559Z,94792.4609
2023-04-15T06:23:17.247Z,94792.7656
2023-04-15T06:24:18.856Z,94791.0781
2023-04-15T06:25:20.533Z,94790.1562
2023-04-15T06:26:22.179Z,94789.0781
2023-04-15T06:27:23.805Z,94788.0781
2023-04-15T06:28:25.460Z,94787.1562
2023-04-15T06:29:27.152Z,94786.6953
2023-04-15T06:30:28.772Z,94786.7656
2023-04-15T06:31:30.508Z,94786.4609
2023-04-15T06:32:32.120Z,94786.7656
2023-04-15T06:33:33.704Z,94787.0000
2023-04-15T06:34:35.406Z,94787.0781
2023-04-15T06:35:37.025Z,94787.3047
2023-04-15T06:36:38.660Z,94786.8438
2023-04-15T06:37:40.357Z,94787.0781
2023-04-15T06:38:41.969Z,94788.0781
2023-04-15T06:39:43.683Z,94789.5391
2023-04-15T06:40:45.301Z,94790.9219
2023-04-15T06:41:46.929Z,94792.3047
2023-04-15T06:42:48.613Z,94791.1562
2023-04-15T06:43:50.254Z,94790.0000
2023-04-15T06:44:51.942Z,94790.3047
2023-04-15T06:45:53.538Z,94791.5391
2023-04-15T06:46:55.193Z,94790.5391
2023-04-15T06:47:56.896Z,94791.0000
2023-04-15T06:48:59.596Z,94792.4609
2023-04-15T06:50:00.295Z,94793.4609
2023-04-15T06:51:01.892Z,94794.6172
2023-04-15T06:52:03.534Z,94795.5391
2023-04-15T06:53:05.198Z,94796.6172
2023-04-15T06:54:06.836Z,94797.4609
2023-04-15T06:55:08.550Z,94798.3047
2023-04-15T06:56:10.197Z,94798.9219
2023-04-15T06:57:11.795Z,94799.4609
2023-04-15T06:58:13.472Z,94799.3828
2023-04-15T06:59:15.129Z,94799.9219
2023-04-15T07:00:16.801Z,94800.1562
2023-04-15T07:01:18.494Z,94799.6953
2023-04-15T07:02:20.175Z,94798.6953
2023-04-15T07:03:21.700Z,94798.8438
2023-04-15T07:04:23.397Z,94798.9219
2023-04-15T07:05:25.091Z,94799.2344
2023-04-15T07:06:26.700Z,94799.8438
2023-04-15T07:07:28.369Z,94801.3047
2023-04-15T07:08:29.958Z,94800.8438
2023-04-15T07:09:31.581Z,94801.6953
2023-04-15T07:10:33.390Z,94801.6953
2023-04-15T07:11:34.920Z,94801.0000
2023-04-15T07:12:36.563Z,94800.5391
2023-04-15T07:13:38.181Z,94799.1562
2023-04-15T07:14:39.812Z,94799.0000
2023-04-15T07:15:41.505Z,94798.2344
2023-04-15T07:16:43.187Z,94797.3828
2023-04-15T07:17:44.787Z,94796.3828
2023-04-15T07:18:46.371Z,94795.6953
2023-04-15T07:19:48.035Z,94796.3047
2023-04-15T07:20:49.746Z,94796.9219
2023-04-15T07:21:51.350Z,94794.4609
2023-04-15T07:22:52.954Z,94792.0000
2023-04-15T07:23:54.774Z,94791.9219
2023-04-15T07:24:56.268Z,94791.6172
2023-04-15T07:25:57.950Z,94791.0000
2023-04-15T07:27:01.014Z,94790.3828
2023-04-15T07:28:01.309Z,94789.3828
2023-04-15T07:29:03.183Z,94788.6172
2023-04-15T07:30:04.551Z,94788.3047
2023-04-15T07:31:06.282Z,94787.7656
2023-04-15T07:32:07.975Z,94786.8438
2023-04-15T07:33:09.501Z,94785.6172
2023-04-15T07:34:11.172Z,94785.1562
2023-04-15T07:35:12.823Z,94785.0781
2023-04-15T07:36:14.506Z,94785.3047
2023-04-15T07:37:16.102Z,94784.8438
2023-04-15T07:38:17.742Z,94784.6953
2023-04-15T07:39:19.444Z,94784.5391
2023-04-15T07:40:21.052Z,94785.0000
2023-04-15T07:41:22.764Z,94784.8438
2023-04-15T07:42:24.338Z,94784.1562
2023-04-15T07:43:26.058Z,94783.3047
2023-04-15T07:44:27.716Z,94784.0000
2023-04-15T07:45:29.279Z,94784.7656
2023-04-15T07:46:30.997Z,94785.3828
2023-04-15T07:47:32.660Z,94785.3047
2023-04-15T07:48:35.613Z,94786.0781
2023-04-15T07:49:35.856Z,94786.6953
2023-04-15T07:50:37.429Z,94786.4609
2023-04-15T07:51:39.047Z,94785.6953
2023-04-15T07:52:40.693Z,94785.3047
2023-04-15T07:53:42.327Z,94784.7656
2023-04-15T07:54:44.005Z,94784.4609
2023-04-15T07:55:45.657Z,94784.9219
2023-04-15T07:56:47.366Z,94784.1562
2023-04-15T07:57:48.943Z,94784.2344
2023-04-15T07:58:50.604Z,94783.6953
2023-04-15T07:59:52.242Z,94783.7656
2023-04-15T08:00:53.872Z,94782.9219
2023-04-15T08:01:55.593Z,94780.6172
2023-04-15T08:02:57.321Z,94781.4609
2023-04-15T08:03:58.889Z,94781.3047
2023-04-15T08:05:00.493Z,94781.0000
2023-04-15T08:06:02.095Z,94781.6172
2023-04-15T08:07:03.752Z,94783.0000
2023-04-15T08:08:05.386Z,94782.4609
2023-04-15T08:09:07.252Z,94783.9219
2023-04-15T08:10:08.678Z,94785.0781
2023-04-15T08:11:10.539Z,94784.7656
2023-04-15T08:12:12.002Z,94784.9219
2023-04-15T08:13:13.605Z,94785.9219
2023-04-15T08:14:15.237Z,94784.5391
2023-04-15T08:15:16.896Z,94785.3047
2023-04-15T08:16:18.631Z,94785.5391
2023-04-15T08:17:20.235Z,94786.0000
2023-04-15T08:18:21.934Z,94786.8438
2023-04-15T08:19:23.477Z,94787.0000
2023-04-15T08:20:25.137Z,94787.0781
2023-04-15T08:21:26.755Z,94788.9219
2023-04-15T08:22:28.482Z,94790.0000
2023-04-15T08:23:30.061Z,94789.8438
2023-04-15T08:24:31.709Z,94790.0781
2023-04-15T08:25:33.430Z,94789.9219
2023-04-15T08:26:35.050Z,94790.0781
2023-04-15T08:27:36.756Z,94790.8438
2023-04-15T08:28:38.345Z,94791.3047
2023-04-15T08:29:39.993Z,94791.8438
2023-04-15T08:30:41.646Z,94791.6172
2023-04-15T08:31:43.354Z,94792.0781
2023-04-15T08:32:45.049Z,94792.9219
2023-04-15T08:33:46.594Z,94793.1562
2023-04-15T08:34:48.257Z,94793.0000
2023-04-15T08:35:49.862Z,94794.0000
2023-04-15T08:36:51.590Z,94795.6953
2023-04-15T08:37:53.220Z,94795.5391
2023-04-15T08:38:54.854Z,94796.2344
2023-04-15T08:39:56.480Z,94797.1562
2023-04-15T08:40:58.093Z,94796.6172
2023-04-15T08:41:59.721Z,94796.5391
2023-04-15T08:43:01.401Z,94796.3047
2023-04-15T08:44:03.067Z,94796.5391
2023-04-15T08:45:04.685Z,94797.4609
2023-04-15T08:46:06.230Z,94797.6953
2023-04-15T08:47:07.983Z,94797.7656
2023-04-15T08:48:09.574Z,94797.0781
2023-04-15T08:49:11.162Z,94797.9219
2023-04-15T08:50:12.817Z,94798.3828
2023-04-15T08:51:14.483Z,94798.5391
2023-04-15T08:52:16.129Z,94799.6172
2023-04-15T08:53:17.741Z,94798.3828
2023-04-15T08:54:19.413Z,94798.3828
2023-04-15T08:55:21.025Z,94798.1562
2023-04-15T08:56:22.698Z,94797.5391
2023-04-15T08:57:24.321Z,94797.3047
2023-04-15T08:58:25.987Z,94797.0781
2023-04-15T08:59:27.587Z,94797.6172
2023-04-15T09:00:29.244Z,94798.3047
2023-04-15T09:01:30.935Z,94799.0000
2023-04-15T09:02:32.620Z,94799.5391
2023-04-15T09:03:34.356Z,94800.3047
2023-04-15T09:04:35.796Z,94802.6172
2023-04-15T09:05:37.485Z,94802.7656
2023-04-15T09:06:39.074Z,94804.3047
2023-04-15T09:07:40.718Z,94806.7656
2023-04-15T09:08:42.399Z,94808.3828
2023-04-15T09:09:44.005Z,94808.6172
2023-04-15T09:10:45.657Z,94811.0781
2023-04-15T09:11:47.298Z,94811.6953
2023-04-15T09:12:48.940Z,94812.0000
2023-04-15T09:13:50.641Z,94811.8438
2023-04-15T09:14:52.256Z,94811.6953
2023-04-15T09:15:53.885Z,94812.6172
2023-04-15T09:16:55.560Z,94813.1562
2023-04-15T09:17:57.219Z,94814.4609
2023-04-15T09:18:58.821Z,94815.3047
2023-04-15T09:20:00.437Z,94815.7656
2023-04-15T09:21:02.101Z,94817.8438
2023-04-15T09:22:03.795Z,94817.7656
2023-04-15T09:23:05.456Z,94819.5391
2023-04-15T09:24:07.174Z,94821.6953
2023-04-15T09:25:08.911Z,94823.1562
2023-04-15T09:26:10.424Z,94824.0000
2023-04-15T09:27:12.082Z,94825.3047
2023-04-15T09:28:13.737Z,94824.7656
2023-04-15T09:29:15.341Z,94825.3047
2023-04-15T09:30:17.049Z,94825.9219
2023-04-15T09:31:18.698Z,94827.3828
2023-04-15T09:32:20.274Z,94828.9219
2023-04-15T09:33:21.899Z,94828.1562
2023-04-15T09:34:23.490Z,94827.3828
2023-04-15T09:35:25.095Z,94828.2344
2023-04-15T09:36:26.753Z,94828.7656
2023-04-15T09:37:32.461Z,94829.1562
2023-04-15T09:38:30.082Z,94829.2344
2023-04-15T09:39:31.701Z,94828.0000
2023-04-15T09:40:33.374Z,94828.8438
2023-04-15T09:41:34.972Z,94830.6953
2023-04-15T09:42:36.643Z,94831.1562
2023-04-15T09:43:38.283Z,94831.5391
2023-04-15T09:44:39.893Z,94831.5391
2023-04-15T09:45:41.576Z,94833.0000
2023-04-15T09:46:43.215Z,94833.0000
2023-04-15T09:47:44.843Z,94833.6172
2023-04-15T09:48:46.719Z,94834.2344
2023-04-15T09:49:48.244Z,94836.0781
2023-04-15T09:50:49.735Z,94836.1562
2023-04-15T09:52:04.124Z,94837.9219
2023-04-15T09:52:53.043Z,94838.9219
2023-04-15T09:53:54.685Z,94841.3047
2023-04-15T09:54:56.327Z,94843.1562
2023-04-15T09:55:57.934Z,94843.4609
2023-04-15T09:56:59.588Z,94843.7656
2023-04-15T09:58:01.200Z,94843.7656
2023-04-15T09:59:02.882Z,94843.6953
2023-04-15T10:00:04.496Z,94843.6953
2023-04-15T10:01:06.193Z,94843.6172
2023-04-15T10:02:07.978Z,94843.4609
2023-04-15T10:03:09.553Z,94844.1562
2023-04-15T10:04:11.266Z,94845.8438
2023-04-15T10:05:12.738Z,94846.4609
2023-04-15T10:06:14.365Z,94847.0781
2023-04-15T10:07:16.019Z,94849.5391
2023-04-15T10:08:17.638Z,94848.5391
2023-04-15T10:09:19.405Z,94849.6953
2023-04-15T10:10:21.017Z,94850.8438
2023-04-15T10:11:22.653Z,94851.2344
2023-04-15T10:12:24.343Z,94850.6172
2023-04-15T10:13:25.960Z,94851.0781
2023-04-15T10:14:27.666Z,94850.3828
2023-04-15T10:15:29.362Z,94849.4609
2023-04-15T10:16:30.930Z,94849.2344
2023-04-15T10:17:32.651Z,94849.0781
2023-04-15T10:18:34.195Z,94849.0000
2023-04-15T10:19:35.874Z,94849.6172
2023-04-15T10:20:37.475Z,94849.8438
2023-04-15T10:21:39.151Z,94851.3828
2023-04-15T10:22:40.781Z,94851.7656
2023-04-15T10:23:42.414Z,94852.3828
2023-04-15T10:24:44.133Z,94852.9219
2023-04-15T10:25:45.707Z,94852.0781
2023-04-15T10:26:47.389Z,94852.7656
2023-04-15T10:27:48.967Z,94855.2344
2023-04-15T10:28:50.672Z,94856.3828
2023-04-15T10:29:52.230Z,94858.1562
2023-04-15T10:30:53.901Z,94858.6953
2023-04-15T10:31:55.421Z,94859.7656
2023-04-15T10:32:57.100Z,94860.5391
2023-04-15T10:33:58.753Z,94861.4609
2023-04-15T10:35:00.374Z,94862.3047
2023-04-15T10:36:02.040Z,94863.6953
2023-04-15T10:37:03.765Z,94864.5391
2023-04-15T10:38:05.267Z,94864.1562
2023-04-15T10:39:06.898Z,94863.0781
2023-04-15T10:40:08.597Z,94861.6953
2023-04-15T10:41:10.198Z,94862.3828
2023-04-15T10:42:11.837Z,94863.7656
2023-04-15T10:43:13.478Z,94863.6172
2023-04-15T10:44:15.138Z,94863.3828
2023-04-15T10:45:16.800Z,94864.0781
2023-04-15T10:46:18.449Z,94864.1562
2023-04-15T10:47:20.050Z,94864.9219
2023-04-15T10:48:21.708Z,94866.0000
2023-04-15T10:49:23.359Z,94867.1562
2023-04-15T10:50:25.013Z,94868.2344
2023-04-15T10:51:26.664Z,94869.0781
2023-04-15T10:52:28.291Z,94869.6953
2023-04-15T10:53:29.926Z,94870.2344
2023-04-15T10:54:31.585Z,94870.8438
2023-04-15T10:55:33.269Z,94872.1562
2023-04-15T10:56:34.860Z,94874.0000
2023-04-15T10:57:36.491Z,94875.2344
2023-04-15T10:58:38.135Z,94877.6953
2023-04-15T10:59:39.768Z,94877.3828
2023-04-15T11:00:41.435Z,94879.0781
2023-04-15T11:01:43.072Z,94881.0000
2023-04-15T11:02:44.933Z,94882.7656
2023-04-15T11:03:46.490Z,94884.3828
2023-04-15T11:04:48.133Z,94886.0781
2023-04-15T11:05:49.841Z,94887.0000
2023-04-15T11:06:51.354Z,94888.0781
2023-04-15T11:07:53.020Z,94889.6172
2023-04-15T11:08:54.609Z,94891.0781
2023-04-15T11:09:56.249Z,94892.6953
2023-04-15T11:10:57.932Z,94893.2344
2023-04-15T11:11:59.564Z,94895.0000
2023-04-15T11:13:01.195Z,94895.9219
2023-04-15T11:14:03.039Z,94896.7656
2023-04-15T11:15:04.468Z,94898.0781
2023-04-15T11:16:06.187Z,94900.6953
2023-04-15T11:17:07.768Z,94901.2344
2023-04-15T11:18:09.413Z,94902.2344
2023-04-15T11:19:10.913Z,94903.3047
2023-04-15T11:20:12.650Z,94905.0781
2023-04-15T11:21:14.270Z,94906.2344
2023-04-15T11:22:15.884Z,94908.5391
2023-04-15T11:23:17.523Z,94910.5391